Pittsford Mills, Vermont
Current Conditions -  °F | °C
As of 1:35 PM on Monday 26 Jan 2015 (Local Time) from KRUT Reporting Station
Scattered Clouds Scattered Clouds  
Wind Chill:   Ceiling: Unl
Heat Index: 16°   Visibility: 10mi
Dew Point:   Wind: 6mph
Humidity: 49%   Direction: 340°NNW
Pressure: 29.99"   Gusts: NA
Location:  43.7419°N, 73.0064°W
Report Text: KRUT 261835Z 34005KT 10SM SCT070 M09/M18 A2999 RMK AO1
Loading
Personal Weather Stations






























Interactive Weather Map New forecast layout! Learn more

10-Day Weather Forecast

Advertisements
Track Severe Weather on mobile